Time;durP1;ratioP1;P1;durP2;ratioP2;P2;SDS_P1;SDS_P2;PMS_P1;PMS_P2;Temp;Humidity;BMP_temperature;BMP_pressure;BME280_temperature;BME280_humidity;BME280_pressure;Samples;Min_cycle;Max_cycle;Signal;HPM_P1;HPM_P2
2024/03/04 00:01:25;;;;;;;9.50;7.30;;;9.00;99.90;;;;;;5008536;28;20401;-83
2024/03/04 00:03:51;;;;;;;6.53;5.93;;;8.90;99.90;;;;;;5013640;28;20411;-81
2024/03/04 00:06:17;;;;;;;7.72;6.55;;;8.80;99.90;;;;;;5026539;28;20391;-82
2024/03/04 00:08:42;;;;;;;7.30;6.60;;;8.90;99.90;;;;;;5024753;28;20383;-82
2024/03/04 00:11:08;;;;;;;6.18;5.57;;;8.90;99.90;;;;;;5038556;28;20389;-82
2024/03/04 00:13:33;;;;;;;6.50;5.70;;;8.90;99.90;;;;;;5009072;28;20389;-83
2024/03/04 00:16:00;;;;;;;7.20;6.50;;;8.90;99.90;;;;;;5030632;28;20414;-82
2024/03/04 00:18:26;;;;;;;8.60;6.93;;;8.80;99.90;;;;;;5019240;28;20472;-82
2024/03/04 00:20:52;;;;;;;6.80;6.20;;;8.80;99.90;;;;;;5006588;28;20427;-83
2024/03/04 00:23:18;;;;;;;6.75;6.10;;;8.80;99.90;;;;;;5007200;28;20412;-85
2024/03/04 00:25:45;;;;;;;6.85;6.15;;;8.90;99.90;;;;;;5031636;28;20399;-82
2024/03/04 00:28:10;;;;;;;6.90;6.20;;;8.80;99.90;;;;;;5026238;28;20485;-82
2024/03/04 00:30:36;;;;;;;8.60;5.75;;;8.70;99.90;;;;;;5026839;28;20390;-82
2024/03/04 00:33:02;;;;;;;6.68;5.97;;;8.60;99.90;;;;;;5024266;28;20734;-82
2024/03/04 00:35:27;;;;;;;6.70;6.00;;;8.60;99.90;;;;;;5005615;28;20413;-82
2024/03/04 00:37:53;;;;;;;7.05;6.35;;;8.00;99.90;;;;;;5034393;28;20383;-82
2024/03/04 00:40:18;;;;;;;7.30;6.60;;;8.50;99.90;;;;;;5026135;28;20399;-82
2024/03/04 00:42:44;;;;;;;7.53;6.50;;;8.70;99.90;;;;;;5008398;28;20407;-82
2024/03/04 00:45:09;;;;;;;6.77;6.17;;;8.70;99.90;;;;;;5026280;28;20488;-83
2024/03/04 00:47:35;;;;;;;7.83;7.03;;;8.70;99.90;;;;;;5034321;28;20486;-81
2024/03/04 00:50:01;;;;;;;6.63;6.03;;;8.70;99.90;;;;;;5017965;28;20405;-80
2024/03/04 00:52:27;;;;;;;6.95;6.25;;;8.70;99.90;;;;;;5015679;28;20384;-81
2024/03/04 00:54:53;;;;;;;6.97;6.37;;;8.60;99.90;;;;;;5028349;28;20463;-82
2024/03/04 00:57:19;;;;;;;6.10;5.50;;;8.70;99.90;;;;;;5013559;28;20527;-81
2024/03/04 00:59:45;;;;;;;6.75;6.15;;;8.70;99.90;;;;;;5027416;28;20754;-81
2024/03/04 01:02:11;;;;;;;6.18;5.60;;;8.70;99.90;;;;;;5006043;28;20404;-81
2024/03/04 01:04:37;;;;;;;5.55;5.05;;;8.60;99.90;;;;;;5025447;28;20413;-81
2024/03/04 01:07:02;;;;;;;5.78;5.20;;;8.50;99.90;;;;;;5007255;28;20399;-82
2024/03/04 01:09:28;;;;;;;5.30;4.80;;;8.40;99.90;;;;;;5019378;28;20414;-82
2024/03/04 01:11:54;;;;;;;5.60;5.10;;;8.40;99.90;;;;;;5034753;28;20400;-82
2024/03/04 01:14:20;;;;;;;5.73;5.13;;;8.20;99.90;;;;;;5027090;28;20387;-82
2024/03/04 01:16:49;;;;;;;5.95;5.35;;;8.20;99.90;;;;;;5039159;28;20406;-82
2024/03/04 01:19:15;;;;;;;5.55;5.05;;;8.10;99.90;;;;;;5022828;28;20384;-82
2024/03/04 01:21:40;;;;;;;6.60;5.20;;;8.20;99.90;;;;;;5025050;28;20434;-82
2024/03/04 01:24:06;;;;;;;6.60;4.80;;;8.40;99.90;;;;;;5042582;28;20473;-82
2024/03/04 01:26:32;;;;;;;5.15;4.75;;;8.20;99.90;;;;;;5020350;28;20406;-82
2024/03/04 01:28:58;;;;;;;5.88;5.38;;;8.20;99.90;;;;;;5014841;28;20835;-82
2024/03/04 01:31:24;;;;;;;6.28;5.22;;;8.20;99.90;;;;;;5017026;28;20930;-82
2024/03/04 01:33:50;;;;;;;5.20;4.80;;;8.10;99.90;;;;;;5035313;28;20395;-82
2024/03/04 01:36:16;;;;;;;5.68;5.18;;;8.10;99.90;;;;;;5014329;28;20447;-81
2024/03/04 01:38:42;;;;;;;5.45;4.95;;;8.20;99.90;;;;;;5018150;28;20391;-82
2024/03/04 01:41:08;;;;;;;5.73;5.13;;;8.10;99.90;;;;;;5046274;28;20383;-83
2024/03/04 01:43:33;;;;;;;5.93;5.43;;;8.00;99.90;;;;;;5044859;28;20414;-82
2024/03/04 01:45:59;;;;;;;5.47;4.97;;;7.80;99.90;;;;;;5037747;28;20399;-81
2024/03/04 01:48:25;;;;;;;5.40;4.90;;;8.00;99.90;;;;;;5045695;28;20426;-82
2024/03/04 01:50:51;;;;;;;5.90;5.30;;;8.00;99.90;;;;;;5045527;28;20411;-81
2024/03/04 01:53:18;;;;;;;6.10;5.30;;;8.00;99.90;;;;;;5027983;28;20449;-82
2024/03/04 01:55:56;;;;;;;5.00;4.60;;;8.00;99.90;;;;;;5019366;28;20415;-82
2024/03/04 01:58:22;;;;;;;5.53;4.97;;;8.10;99.90;;;;;;5026120;28;20391;-81
2024/03/04 02:00:51;;;;;;;5.50;5.00;;;8.00;99.90;;;;;;5011570;28;20423;-82
2024/03/04 02:03:18;;;;;;;5.47;4.93;;;8.00;99.90;;;;;;5040608;28;20410;-82
2024/03/04 02:05:45;;;;;;;5.65;5.15;;;8.00;99.90;;;;;;5040998;28;20387;-82
2024/03/04 02:08:12;;;;;;;5.60;5.00;;;8.00;99.90;;;;;;5047560;28;20391;-82
2024/03/04 02:10:38;;;;;;;6.00;4.88;;;8.10;99.90;;;;;;5045354;28;20387;-83
2024/03/04 02:13:04;;;;;;;5.88;4.88;;;8.00;99.90;;;;;;5035285;28;20442;-82
2024/03/04 02:15:34;;;;;;;5.30;4.90;;;8.00;99.90;;;;;;5030757;28;20412;-83
2024/03/04 02:18:00;;;;;;;5.65;4.75;;;8.00;99.90;;;;;;5012971;28;20424;-83
2024/03/04 02:20:27;;;;;;;5.78;5.28;;;7.90;99.90;;;;;;5033161;28;20403;-82
2024/03/04 02:22:54;;;;;;;5.10;4.60;;;7.90;99.90;;;;;;5029149;28;20384;-83
2024/03/04 02:25:22;;;;;;;4.90;4.50;;;8.00;99.90;;;;;;5030403;28;20420;-82
2024/03/04 02:27:48;;;;;;;5.35;4.85;;;7.80;99.90;;;;;;5032222;28;20442;-82
2024/03/04 02:30:14;;;;;;;5.60;5.00;;;7.90;99.90;;;;;;5030658;28;20391;-82
2024/03/04 02:32:41;;;;;;;5.50;4.90;;;7.80;99.90;;;;;;5048531;28;20398;-82
2024/03/04 02:35:10;;;;;;;5.65;5.15;;;7.80;99.90;;;;;;5029197;28;20398;-82
2024/03/04 02:37:36;;;;;;;5.03;4.60;;;7.80;99.90;;;;;;5019090;28;20479;-83
2024/03/04 02:40:07;;;;;;;5.20;4.70;;;7.80;99.90;;;;;;5010230;28;20480;-82
2024/03/04 02:42:36;;;;;;;4.70;4.30;;;7.90;99.90;;;;;;5041007;28;20405;-83
2024/03/04 02:45:02;;;;;;;4.70;4.30;;;7.90;99.90;;;;;;5047651;28;20431;-81
2024/03/04 02:47:27;;;;;;;5.75;4.85;;;7.90;99.90;;;;;;5020823;28;20392;-81
2024/03/04 02:49:53;;;;;;;5.43;4.70;;;7.80;99.90;;;;;;5021159;28;20438;-81
2024/03/04 02:52:18;;;;;;;5.03;4.32;;;7.80;99.90;;;;;;5044792;28;20395;-82
2024/03/04 02:54:44;;;;;;;4.43;4.07;;;7.70;99.90;;;;;;5030189;28;20418;-82
2024/03/04 02:57:10;;;;;;;5.50;5.00;;;7.60;99.90;;;;;;5048276;28;20391;-82
2024/03/04 02:59:36;;;;;;;5.28;4.78;;;7.70;99.90;;;;;;5028958;28;20401;-82
2024/03/04 03:02:02;;;;;;;5.80;5.20;;;7.50;99.90;;;;;;5009264;28;20505;-81
2024/03/04 03:04:27;;;;;;;5.85;5.07;;;7.50;99.90;;;;;;5025363;28;20478;-82
2024/03/04 03:06:53;;;;;;;5.83;5.33;;;7.50;99.90;;;;;;5010687;28;20403;-82
2024/03/04 03:09:18;;;;;;;6.77;4.93;;;7.40;99.90;;;;;;5037447;28;20415;-82
2024/03/04 03:11:45;;;;;;;6.40;5.70;;;7.60;99.90;;;;;;5030138;28;20399;-82
2024/03/04 03:14:10;;;;;;;6.32;5.72;;;7.50;99.90;;;;;;5047805;28;20375;-82
2024/03/04 03:16:36;;;;;;;5.93;5.33;;;7.40;99.90;;;;;;5029207;28;20379;-82
2024/03/04 03:19:01;;;;;;;5.90;5.30;;;7.40;99.90;;;;;;5028931;28;20903;-83
2024/03/04 03:21:28;;;;;;;5.60;5.10;;;7.30;99.90;;;;;;5031608;28;20393;-83
2024/03/04 03:23:53;;;;;;;5.70;5.20;;;7.30;99.90;;;;;;5025155;28;20443;-82
2024/03/04 03:26:19;;;;;;;6.50;5.90;;;7.10;99.90;;;;;;5023444;28;20460;-82
2024/03/04 03:28:45;;;;;;;5.57;5.07;;;7.20;99.90;;;;;;5016709;28;20816;-82
2024/03/04 03:31:11;;;;;;;5.78;5.28;;;7.20;99.90;;;;;;5005751;28;20401;-82
2024/03/04 03:33:37;;;;;;;6.05;5.45;;;7.10;99.90;;;;;;5024795;28;20385;-83
2024/03/04 03:36:04;;;;;;;9.37;5.50;;;7.20;99.90;;;;;;5032094;28;20401;-83
2024/03/04 03:38:30;;;;;;;7.15;5.72;;;7.20;99.90;;;;;;5029211;28;20396;-83
2024/03/04 03:40:56;;;;;;;5.70;5.10;;;7.20;99.90;;;;;;5002379;28;20776;-83
2024/03/04 03:43:22;;;;;;;6.20;5.60;;;7.40;99.90;;;;;;5017872;28;20423;-82
2024/03/04 03:45:48;;;;;;;6.18;5.50;;;7.10;99.90;;;;;;5042611;28;20889;-83
2024/03/04 03:48:18;;;;;;;5.50;5.00;;;7.00;99.90;;;;;;5014158;28;20395;-82
2024/03/04 03:50:47;;;;;;;5.70;5.10;;;7.20;99.90;;;;;;5001576;28;20783;-83
2024/03/04 03:53:13;;;;;;;6.10;5.50;;;7.30;99.90;;;;;;5000879;28;20393;-82
2024/03/04 03:55:41;;;;;;;5.72;5.00;;;7.40;99.90;;;;;;5020127;28;20455;-83
2024/03/04 03:58:07;;;;;;;6.07;5.47;;;7.30;99.90;;;;;;5020101;28;20781;-83
2024/03/04 04:00:33;;;;;;;6.30;5.32;;;7.20;99.90;;;;;;5019906;28;20388;-83
2024/03/04 04:02:59;;;;;;;6.30;5.60;;;7.30;99.90;;;;;;5013979;28;20391;-82
2024/03/04 04:05:25;;;;;;;7.15;5.45;;;7.20;99.90;;;;;;5021591;28;20509;-83
2024/03/04 04:07:50;;;;;;;5.53;4.80;;;7.40;99.90;;;;;;5025867;28;20395;-83
2024/03/04 04:10:16;;;;;;;5.13;4.63;;;7.40;99.90;;;;;;5048919;28;20383;-83
2024/03/04 04:12:42;;;;;;;5.20;4.70;;;7.30;99.90;;;;;;5032131;28;20459;-83
2024/03/04 04:15:08;;;;;;;5.38;4.85;;;7.30;99.90;;;;;;5031501;28;20444;-83
2024/03/04 04:17:33;;;;;;;5.80;5.30;;;7.40;99.90;;;;;;5041274;28;20401;-83
2024/03/04 04:19:59;;;;;;;5.10;4.60;;;7.40;99.90;;;;;;5009330;28;20389;-83
2024/03/04 04:22:26;;;;;;;5.70;5.20;;;7.40;99.90;;;;;;5009421;28;20460;-82
2024/03/04 04:24:53;;;;;;;6.10;5.50;;;7.30;99.90;;;;;;5030856;28;20501;-82
2024/03/04 04:27:18;;;;;;;6.90;5.43;;;6.80;99.90;;;;;;5045844;28;20395;-82
2024/03/04 04:29:44;;;;;;;6.00;5.40;;;7.20;99.90;;;;;;5041370;28;20387;-82
2024/03/04 04:32:13;;;;;;;5.30;4.80;;;7.40;99.90;;;;;;5038815;28;20390;-83
2024/03/04 04:34:40;;;;;;;6.57;5.13;;;7.40;99.90;;;;;;5022167;28;20495;-82
2024/03/04 04:37:06;;;;;;;5.75;5.25;;;7.30;99.90;;;;;;5043021;28;20391;-83
2024/03/04 04:39:31;;;;;;;5.80;5.30;;;7.30;99.90;;;;;;5042408;28;20395;-81
2024/03/04 04:41:57;;;;;;;6.37;5.33;;;7.30;99.90;;;;;;5053220;28;20410;-82
2024/03/04 04:44:22;;;;;;;5.20;4.80;;;7.40;99.90;;;;;;5028847;28;20455;-82
2024/03/04 04:46:48;;;;;;;5.95;5.45;;;7.50;99.90;;;;;;5028308;28;20387;-82
2024/03/04 04:49:13;;;;;;;5.70;5.20;;;7.40;99.90;;;;;;5045486;28;20475;-82
2024/03/04 04:51:40;;;;;;;5.70;5.20;;;7.70;99.90;;;;;;5012900;28;20539;-81
2024/03/04 04:54:06;;;;;;;5.45;4.75;;;7.30;99.90;;;;;;5018925;28;20403;-81
2024/03/04 04:56:31;;;;;;;5.60;5.10;;;7.40;99.90;;;;;;5018676;28;20416;-81
2024/03/04 04:58:57;;;;;;;5.93;5.43;;;7.40;99.90;;;;;;5023663;28;20468;-81
2024/03/04 05:01:26;;;;;;;6.25;5.65;;;7.50;99.90;;;;;;5024077;28;20393;-81
2024/03/04 05:03:53;;;;;;;6.00;5.50;;;7.50;99.90;;;;;;5041965;28;20410;-82
2024/03/04 05:06:20;;;;;;;5.60;5.10;;;7.50;99.90;;;;;;5020001;28;20401;-81
2024/03/04 05:08:48;;;;;;;5.50;5.00;;;7.50;99.90;;;;;;5037179;28;20405;-82
2024/03/04 05:11:15;;;;;;;5.60;5.10;;;7.60;99.90;;;;;;5021143;28;20404;-82
2024/03/04 05:13:40;;;;;;;5.07;4.50;;;7.60;99.90;;;;;;5025088;28;20420;-83
2024/03/04 05:16:07;;;;;;;6.13;5.03;;;7.60;99.90;;;;;;5025230;28;20394;-83
2024/03/04 05:18:33;;;;;;;5.70;5.10;;;7.60;99.90;;;;;;5042542;28;20402;-83
2024/03/04 05:20:58;;;;;;;5.67;5.10;;;7.50;99.90;;;;;;5021535;28;20393;-85
2024/03/04 05:23:24;;;;;;;6.53;5.50;;;7.00;99.90;;;;;;5002973;28;20413;-86
2024/03/04 05:25:50;;;;;;;6.18;5.20;;;7.40;99.90;;;;;;5034057;28;20387;-84
2024/03/04 05:28:15;;;;;;;6.18;5.22;;;8.90;99.90;;;;;;5045930;28;20430;-84
2024/03/04 05:30:41;;;;;;;5.60;5.10;;;7.40;99.90;;;;;;5052702;28;20411;-84
2024/03/04 05:33:07;;;;;;;6.15;5.55;;;7.50;99.90;;;;;;5038743;28;20445;-82
2024/03/04 05:35:36;;;;;;;5.90;5.30;;;8.40;99.90;;;;;;5047874;28;20407;-84
2024/03/04 05:38:02;;;;;;;6.07;5.47;;;7.60;99.90;;;;;;5017551;28;20395;-84
2024/03/04 05:40:28;;;;;;;6.80;5.60;;;7.50;99.90;;;;;;5012881;28;20428;-84
2024/03/04 05:42:54;;;;;;;6.03;5.50;;;7.20;99.90;;;;;;5020534;28;20384;-83
2024/03/04 05:45:20;;;;;;;6.50;5.90;;;7.60;99.90;;;;;;5034801;28;20383;-83
2024/03/04 05:47:46;;;;;;;7.03;6.40;;;7.50;99.90;;;;;;5003404;28;20388;-82
2024/03/04 05:50:14;;;;;;;7.13;6.30;;;7.60;99.90;;;;;;5002774;28;20385;-82
2024/03/04 05:52:40;;;;;;;6.50;5.80;;;7.50;99.90;;;;;;5001238;28;20825;-82
2024/03/04 05:55:06;;;;;;;6.90;6.30;;;7.30;99.90;;;;;;5002496;28;20402;-82
2024/03/04 05:57:34;;;;;;;6.82;6.13;;;7.30;99.90;;;;;;5015831;28;20870;-82
2024/03/04 06:00:02;;;;;;;6.85;6.25;;;7.30;99.90;;;;;;5031270;28;20387;-83
2024/03/04 06:02:28;;;;;;;6.95;6.28;;;7.50;99.90;;;;;;5026680;28;20429;-83
2024/03/04 06:04:53;;;;;;;7.18;5.80;;;7.50;99.90;;;;;;5043277;28;20414;-83
2024/03/04 06:07:19;;;;;;;7.30;6.60;;;7.50;99.90;;;;;;5041915;28;20387;-81
2024/03/04 06:09:44;;;;;;;7.83;7.03;;;7.50;99.90;;;;;;5021318;28;20397;-82
2024/03/04 06:12:10;;;;;;;8.80;7.07;;;7.50;99.90;;;;;;5033700;28;20401;-83
2024/03/04 06:14:36;;;;;;;7.70;6.90;;;7.50;99.90;;;;;;5035538;28;20453;-83
2024/03/04 06:17:01;;;;;;;7.50;6.77;;;7.30;99.90;;;;;;5006246;28;21002;-82
2024/03/04 06:19:27;;;;;;;8.00;6.82;;;7.20;99.90;;;;;;5025883;28;20380;-83
2024/03/04 06:21:54;;;;;;;8.38;6.47;;;7.20;99.90;;;;;;5002970;28;20400;-82
2024/03/04 06:24:19;;;;;;;7.38;6.38;;;7.40;99.90;;;;;;5001971;28;20425;-82
2024/03/04 06:26:45;;;;;;;8.55;6.90;;;7.40;99.90;;;;;;5018307;28;20424;-81
2024/03/04 06:29:10;;;;;;;7.70;6.80;;;7.30;99.90;;;;;;5029577;28;20385;-82
2024/03/04 06:31:36;;;;;;;7.73;6.90;;;7.10;99.90;;;;;;5005868;28;20452;-82
2024/03/04 06:34:01;;;;;;;7.37;6.67;;;7.20;99.90;;;;;;5021204;28;20445;-81
2024/03/04 06:36:27;;;;;;;8.10;6.93;;;7.30;99.90;;;;;;5022975;28;21003;-82
2024/03/04 06:38:52;;;;;;;7.75;6.78;;;7.40;99.90;;;;;;5020400;28;20947;-80
2024/03/04 06:41:18;;;;;;;8.18;6.97;;;7.30;99.90;;;;;;5002513;28;20401;-81
2024/03/04 06:43:43;;;;;;;9.13;7.10;;;7.20;99.90;;;;;;5010880;28;20405;-82
2024/03/04 06:46:09;;;;;;;8.40;7.03;;;7.10;99.90;;;;;;5001792;28;20408;-83
2024/03/04 06:48:35;;;;;;;8.47;7.40;;;7.30;99.90;;;;;;5022402;28;20740;-83
2024/03/04 06:51:01;;;;;;;8.40;7.20;;;7.30;99.90;;;;;;5019045;28;20453;-82
2024/03/04 06:53:27;;;;;;;8.05;6.82;;;7.20;99.90;;;;;;5001321;28;20389;-83
2024/03/04 06:55:53;;;;;;;9.38;7.18;;;7.10;99.90;;;;;;5023289;28;20523;-83
2024/03/04 06:58:19;;;;;;;10.13;7.00;;;7.00;99.90;;;;;;5002402;28;20483;-82
2024/03/04 07:00:44;;;;;;;9.00;8.10;;;7.00;99.90;;;;;;5001625;28;20403;-82
2024/03/04 07:03:10;;;;;;;10.50;8.27;;;7.00;99.90;;;;;;5019098;28;20403;-82
2024/03/04 07:05:37;;;;;;;11.67;8.40;;;7.10;99.90;;;;;;5018200;28;20408;-82
2024/03/04 07:08:03;;;;;;;9.18;7.88;;;7.00;99.90;;;;;;5004264;28;20385;-82
2024/03/04 07:10:29;;;;;;;9.50;8.27;;;6.90;99.90;;;;;;5007593;28;20397;-82
2024/03/04 07:12:54;;;;;;;8.90;7.95;;;7.10;99.90;;;;;;5022891;28;20401;-83
2024/03/04 07:15:20;;;;;;;11.40;8.37;;;6.90;99.90;;;;;;5041253;28;20404;-82
2024/03/04 07:17:45;;;;;;;9.63;8.63;;;6.90;99.90;;;;;;5012144;28;20392;-83
2024/03/04 07:20:11;;;;;;;11.50;9.25;;;7.00;99.90;;;;;;5025204;28;20947;-82
2024/03/04 07:22:37;;;;;;;11.77;10.25;;;7.10;99.90;;;;;;5024470;28;20399;-83
2024/03/04 07:25:04;;;;;;;9.82;8.35;;;7.20;99.90;;;;;;5014797;28;20419;-83
2024/03/04 07:27:30;;;;;;;11.30;8.63;;;7.00;99.90;;;;;;5026214;28;20404;-83
2024/03/04 07:29:55;;;;;;;10.60;9.10;;;7.00;99.90;;;;;;5031904;28;20383;-83
2024/03/04 07:32:21;;;;;;;9.07;7.80;;;7.10;99.90;;;;;;5022594;28;20464;-83
2024/03/04 07:34:47;;;;;;;8.93;7.70;;;7.10;99.90;;;;;;5025373;28;20421;-83
2024/03/04 07:37:13;;;;;;;9.15;8.13;;;7.10;99.90;;;;;;5023231;28;20391;-82
2024/03/04 07:39:38;;;;;;;10.35;7.78;;;7.10;99.90;;;;;;5009457;28;20988;-83
2024/03/04 07:42:04;;;;;;;11.50;8.55;;;7.20;99.90;;;;;;5029363;28;20399;-82
2024/03/04 07:44:30;;;;;;;10.00;8.30;;;7.20;99.90;;;;;;5039802;28;20746;-82
2024/03/04 07:46:55;;;;;;;10.18;8.65;;;7.00;99.90;;;;;;5050513;28;20389;-82
2024/03/04 07:49:21;;;;;;;11.40;9.37;;;7.00;99.90;;;;;;5012872;28;20388;-83
2024/03/04 07:51:46;;;;;;;10.60;8.40;;;7.00;99.90;;;;;;5012105;28;20477;-83
2024/03/04 07:54:12;;;;;;;12.40;8.93;;;7.00;99.90;;;;;;5013490;28;20405;-83
2024/03/04 07:56:38;;;;;;;11.30;8.48;;;8.10;99.90;;;;;;5033288;28;20483;-82
2024/03/04 07:59:03;;;;;;;11.23;8.55;;;6.90;99.90;;;;;;5005030;28;20404;-82
2024/03/04 08:01:29;;;;;;;8.73;7.80;;;7.10;99.90;;;;;;5010013;28;20474;-82
2024/03/04 08:03:54;;;;;;;9.80;8.30;;;7.00;99.90;;;;;;5025538;28;20565;-83
2024/03/04 08:06:20;;;;;;;11.03;8.67;;;7.00;99.90;;;;;;5036647;28;20413;-83
2024/03/04 08:08:48;;;;;;;10.60;8.30;;;7.10;99.90;;;;;;5018317;28;20379;-83
2024/03/04 08:11:14;;;;;;;10.30;8.65;;;7.00;99.90;;;;;;5016175;28;20969;-82
2024/03/04 08:13:39;;;;;;;10.10;8.50;;;7.00;99.90;;;;;;5023771;28;20435;-84
2024/03/04 08:16:05;;;;;;;11.90;9.07;;;7.10;99.90;;;;;;5013811;28;20491;-83
2024/03/04 08:18:31;;;;;;;11.35;8.70;;;7.20;99.90;;;;;;5014946;28;20385;-84
2024/03/04 08:20:56;;;;;;;8.82;7.57;;;7.00;99.90;;;;;;5015666;28;20713;-83
2024/03/04 08:23:22;;;;;;;10.27;7.40;;;6.90;99.90;;;;;;5008302;28;20404;-82
2024/03/04 08:25:48;;;;;;;9.90;8.13;;;7.00;99.90;;;;;;5005613;28;20396;-82
2024/03/04 08:28:14;;;;;;;9.00;7.80;;;7.10;99.90;;;;;;5026278;28;20412;-82
2024/03/04 08:30:39;;;;;;;9.37;8.00;;;7.10;99.90;;;;;;5008200;28;20460;-82
2024/03/04 08:33:05;;;;;;;8.10;7.30;;;7.20;99.90;;;;;;5031733;28;20381;-82
2024/03/04 08:35:30;;;;;;;8.50;6.70;;;7.30;99.90;;;;;;5013795;28;20403;-82
2024/03/04 08:37:56;;;;;;;9.07;7.40;;;7.10;99.90;;;;;;5013921;28;20400;-82
2024/03/04 08:40:22;;;;;;;9.75;7.25;;;7.20;99.90;;;;;;5031110;28;20389;-82
2024/03/04 08:42:47;;;;;;;7.67;6.73;;;7.10;99.90;;;;;;5014333;28;20388;-82
2024/03/04 08:45:16;;;;;;;9.55;7.30;;;6.80;99.90;;;;;;5032481;28;20392;-82
2024/03/04 08:47:41;;;;;;;9.85;7.43;;;7.00;99.90;;;;;;5034495;28;20396;-81
2024/03/04 08:50:08;;;;;;;9.17;8.00;;;7.10;99.90;;;;;;5016196;28;20404;-82
2024/03/04 08:52:34;;;;;;;8.60;7.28;;;6.90;99.90;;;;;;5015899;28;20404;-81
2024/03/04 08:55:00;;;;;;;8.97;8.07;;;7.10;99.90;;;;;;5016042;28;20396;-82
2024/03/04 08:57:25;;;;;;;10.67;8.57;;;7.10;99.90;;;;;;5028327;28;20428;-82
2024/03/04 08:59:51;;;;;;;11.43;8.10;;;7.00;99.90;;;;;;5027144;28;20398;-83
2024/03/04 09:02:17;;;;;;;8.77;7.37;;;7.10;99.90;;;;;;5003135;28;20460;-83
2024/03/04 09:04:43;;;;;;;8.90;8.00;;;7.30;99.90;;;;;;5018882;28;20976;-83
2024/03/04 09:07:09;;;;;;;8.73;7.47;;;7.20;99.90;;;;;;5000343;28;20428;-82
2024/03/04 09:09:35;;;;;;;10.00;8.90;;;7.20;99.90;;;;;;5017860;28;20395;-83
2024/03/04 09:12:03;;;;;;;8.90;7.60;;;7.00;99.90;;;;;;5000399;28;20392;-85
2024/03/04 09:14:29;;;;;;;8.95;7.30;;;7.30;99.90;;;;;;5018463;28;20385;-84
2024/03/04 09:16:55;;;;;;;9.43;7.97;;;7.10;99.90;;;;;;5018565;28;20816;-84
2024/03/04 09:19:20;;;;;;;9.73;7.83;;;7.20;99.90;;;;;;5021527;28;20393;-82
2024/03/04 09:21:46;;;;;;;8.13;7.20;;;7.30;99.90;;;;;;5034630;28;20836;-84
2024/03/04 09:24:14;;;;;;;9.95;7.47;;;7.30;99.90;;;;;;5008502;28;20488;-83
2024/03/04 09:26:45;;;;;;;9.05;8.15;;;7.10;99.90;;;;;;5015590;28;20408;-84
2024/03/04 09:29:10;;;;;;;9.40;7.60;;;7.30;99.90;;;;;;5016073;28;20811;-84
2024/03/04 09:31:36;;;;;;;11.90;8.83;;;7.30;99.90;;;;;;5017980;28;20389;-84
2024/03/04 09:34:02;;;;;;;10.07;7.77;;;7.40;99.90;;;;;;5018496;28;20924;-85
2024/03/04 09:36:28;;;;;;;9.68;7.97;;;7.50;99.90;;;;;;5017937;28;20401;-84
2024/03/04 09:38:53;;;;;;;8.95;7.68;;;7.60;99.90;;;;;;5017900;28;20454;-84
2024/03/04 09:41:19;;;;;;;10.10;7.38;;;7.80;99.90;;;;;;5016439;28;20419;-84
2024/03/04 09:43:46;;;;;;;8.57;7.37;;;7.70;99.90;;;;;;5018148;28;20432;-85
2024/03/04 09:46:12;;;;;;;8.40;7.40;;;7.90;99.90;;;;;;5017212;28;20389;-85
2024/03/04 09:48:39;;;;;;;7.95;7.15;;;7.90;99.90;;;;;;4999749;28;20416;-84
2024/03/04 09:51:07;;;;;;;6.82;6.20;;;8.00;99.90;;;;;;5016056;28;20395;-84
2024/03/04 09:53:36;;;;;;;7.07;6.32;;;8.10;99.90;;;;;;5017764;28;20726;-83
2024/03/04 09:56:02;;;;;;;7.28;5.78;;;8.10;99.90;;;;;;5033211;28;20393;-81
2024/03/04 09:58:29;;;;;;;6.78;5.95;;;7.90;99.90;;;;;;5034192;28;20495;-81
2024/03/04 10:00:56;;;;;;;6.72;5.93;;;8.20;99.90;;;;;;5018964;28;20671;-82
2024/03/04 10:03:23;;;;;;;7.78;6.15;;;8.10;99.90;;;;;;5027333;28;20419;-83
2024/03/04 10:05:49;;;;;;;7.07;6.20;;;8.00;99.90;;;;;;5019931;28;20483;-82
2024/03/04 10:08:15;;;;;;;9.52;7.35;;;8.10;99.90;;;;;;5016855;28;20396;-82
2024/03/04 10:10:40;;;;;;;7.80;6.50;;;8.10;99.90;;;;;;5017555;28;20389;-83
2024/03/04 10:13:10;;;;;;;7.95;6.82;;;8.00;99.90;;;;;;5018729;28;20452;-83
2024/03/04 10:15:36;;;;;;;9.07;7.90;;;7.80;99.90;;;;;;5017167;28;20896;-83
2024/03/04 10:18:10;;;;;;;8.20;7.20;;;7.90;99.90;;;;;;5015077;28;20466;-84
2024/03/04 10:20:36;;;;;;;8.40;7.00;;;8.10;99.90;;;;;;5016869;28;20381;-84
2024/03/04 10:23:02;;;;;;;9.50;7.90;;;7.70;99.90;;;;;;5014601;28;20948;-84
2024/03/04 10:25:28;;;;;;;10.73;8.95;;;7.90;99.90;;;;;;5026619;28;20379;-84
2024/03/04 10:27:54;;;;;;;11.03;9.50;;;8.00;99.90;;;;;;5020485;28;20466;-84
2024/03/04 10:30:27;;;;;;;10.60;9.00;;;8.00;99.90;;;;;;5040038;28;20391;-84
2024/03/04 10:32:57;;;;;;;11.00;8.55;;;7.90;99.90;;;;;;5022211;28;20395;-84
2024/03/04 10:35:25;;;;;;;11.80;9.07;;;7.90;99.90;;;;;;5020820;28;20431;-83
2024/03/04 10:37:52;;;;;;;10.80;8.57;;;7.80;99.90;;;;;;5021910;28;20391;-84
2024/03/04 10:40:22;;;;;;;9.73;8.63;;;7.90;99.90;;;;;;5021975;28;20390;-83
2024/03/04 10:42:49;;;;;;;9.87;8.50;;;8.00;99.90;;;;;;5039885;28;20740;-83
2024/03/04 10:45:15;;;;;;;10.18;8.20;;;8.00;99.90;;;;;;5021578;28;20453;-84
2024/03/04 10:47:43;;;;;;;9.07;7.90;;;8.00;99.90;;;;;;5022513;28;20433;-84
2024/03/04 10:50:15;;;;;;;8.20;7.40;;;8.10;99.90;;;;;;5021987;28;20390;-84
2024/03/04 10:52:41;;;;;;;8.65;7.10;;;7.80;99.90;;;;;;5022032;28;20434;-84
2024/03/04 10:55:07;;;;;;;9.15;7.25;;;7.90;99.90;;;;;;5022382;28;20473;-84
2024/03/04 10:57:38;;;;;;;8.48;7.68;;;8.10;99.90;;;;;;5022080;28;20395;-84
2024/03/04 11:02:58;;;;;;;7.05;6.25;;;8.00;99.90;;;;;;5050362;28;20397;-81
2024/03/04 11:05:26;;;;;;;7.20;6.50;;;7.80;99.90;;;;;;5042803;28;20407;-84
2024/03/04 11:07:57;;;;;;;6.93;6.32;;;8.00;99.90;;;;;;5038987;28;20394;-83
2024/03/04 11:10:46;;;;;;;6.47;5.88;;;8.00;99.90;;;;;;5039325;28;20371;-84
2024/03/04 11:13:28;;;;;;;6.00;5.40;;;8.10;99.90;;;;;;5020792;28;20913;-83
2024/03/04 11:16:10;;;;;;;5.68;4.97;;;8.20;99.90;;;;;;5039287;28;20798;-84
2024/03/04 11:18:58;;;;;;;5.43;4.90;;;8.10;99.90;;;;;;5047207;28;20368;-82
2024/03/04 11:21:26;;;;;;;6.10;4.93;;;7.90;99.90;;;;;;5037950;28;20384;-83
2024/03/04 11:23:52;;;;;;;5.53;4.65;;;7.90;99.90;;;;;;5033571;28;20498;-82
2024/03/04 11:26:19;;;;;;;5.40;4.90;;;8.10;99.90;;;;;;5000844;28;20420;-82
2024/03/04 11:28:46;;;;;;;5.28;4.28;;;7.80;99.90;;;;;;5014773;28;20450;-83
2024/03/04 11:31:23;;;;;;;4.63;4.10;;;8.10;99.90;;;;;;4996527;28;20532;-84
2024/03/04 11:33:58;;;;;;;4.50;4.10;;;8.00;99.90;;;;;;4996350;28;20398;-83
2024/03/04 11:36:24;;;;;;;4.93;4.43;;;7.90;99.90;;;;;;5040019;22;20772;-80
2024/03/04 11:38:51;;;;;;;4.70;4.30;;;7.90;99.90;;;;;;5033380;28;20483;-80
2024/03/04 11:41:51;;;;;;;5.50;4.70;;;8.10;99.90;;;;;;5033996;28;20382;-79
2024/03/04 11:44:27;;;;;;;5.47;4.97;;;8.00;99.90;;;;;;5033852;28;20433;-80
2024/03/04 11:46:56;;;;;;;5.38;4.88;;;8.10;99.90;;;;;;5034047;28;20386;-80
2024/03/04 11:49:32;;;;;;;5.47;4.43;;;8.10;99.90;;;;;;5034696;28;20474;-79
2024/03/04 11:52:05;;;;;;;5.07;4.57;;;8.00;99.90;;;;;;5034846;28;20383;-80
2024/03/04 11:54:34;;;;;;;5.82;5.22;;;7.90;99.90;;;;;;5016329;28;20398;-80
2024/03/04 11:57:07;;;;;;;5.60;5.00;;;7.90;99.90;;;;;;5033747;28;20395;-80
2024/03/04 11:59:32;;;;;;;6.88;5.60;;;8.00;99.90;;;;;;5033697;28;20846;-79
2024/03/04 12:01:58;;;;;;;5.90;5.20;;;7.90;99.90;;;;;;5033853;28;20419;-79
2024/03/04 12:04:29;;;;;;;6.45;5.85;;;8.00;99.90;;;;;;5034005;28;20402;-79
2024/03/04 12:06:55;;;;;;;6.55;5.80;;;8.00;99.90;;;;;;5033886;28;21080;-79
2024/03/04 12:09:23;;;;;;;6.30;5.50;;;7.90;99.90;;;;;;5033689;28;20559;-79
2024/03/04 12:11:49;;;;;;;6.30;5.30;;;7.90;99.90;;;;;;5015475;28;20395;-79
2024/03/04 12:14:15;;;;;;;6.40;5.50;;;8.00;99.90;;;;;;5033086;28;20387;-80
2024/03/04 12:16:40;;;;;;;6.30;5.10;;;8.00;99.90;;;;;;5032384;28;20383;-80
2024/03/04 12:19:06;;;;;;;6.10;5.50;;;8.10;99.90;;;;;;5033930;28;20440;-82
2024/03/04 12:21:32;;;;;;;7.60;6.10;;;8.20;99.90;;;;;;5035688;28;20486;-80
2024/03/04 12:23:58;;;;;;;6.63;5.53;;;8.00;99.90;;;;;;5016199;28;20419;-81
2024/03/04 12:26:24;;;;;;;8.60;5.53;;;8.20;99.90;;;;;;5016265;28;20394;-80
2024/03/04 12:29:00;;;;;;;6.22;5.60;;;8.10;99.90;;;;;;5017058;28;20521;-80
2024/03/04 12:31:26;;;;;;;6.68;5.90;;;8.00;99.90;;;;;;5037398;28;20386;-79
2024/03/04 12:33:57;;;;;;;9.00;6.07;;;7.90;99.90;;;;;;5018471;28;20390;-80
2024/03/04 12:36:26;;;;;;;6.90;6.20;;;8.00;99.90;;;;;;5029043;28;20399;-79
2024/03/04 12:38:53;;;;;;;7.32;6.50;;;8.20;99.90;;;;;;5055414;28;20442;-79
2024/03/04 12:41:19;;;;;;;7.28;6.20;;;8.10;99.90;;;;;;5055156;28;20386;-79
2024/03/04 12:43:48;;;;;;;6.32;5.60;;;8.00;99.90;;;;;;5031063;28;20407;-80
2024/03/04 12:46:15;;;;;;;6.18;5.55;;;8.20;99.90;;;;;;5047030;28;20391;-79
2024/03/04 12:48:40;;;;;;;7.60;6.00;;;8.20;99.90;;;;;;5028575;28;20894;-80
2024/03/04 12:51:06;;;;;;;7.65;5.85;;;8.30;99.90;;;;;;5045406;28;20394;-81
2024/03/04 12:53:33;;;;;;;6.82;5.97;;;8.20;99.90;;;;;;5043772;28;20429;-79
2024/03/04 12:55:58;;;;;;;6.72;5.95;;;8.00;99.90;;;;;;5025736;28;20379;-80